sensor_id;sensor_type;location;lat;lon;timestamp;pressure;altitude;pressure_sealevel;temperature;humidity
84308;BME280;74486;52.070;5.128;2023-12-20T00:00:36;101682.03;;;5.83;100.00
84308;BME280;74486;52.070;5.128;2023-12-20T00:03:02;101682.09;;;5.73;100.00
84308;BME280;74486;52.070;5.128;2023-12-20T00:05:27;101675.56;;;5.78;100.00
84308;BME280;74486;52.070;5.128;2023-12-20T00:07:54;101677.56;;;5.71;100.00
84308;BME280;74486;52.070;5.128;2023-12-20T00:10:20;101663.88;;;5.61;100.00
84308;BME280;74486;52.070;5.128;2023-12-20T00:12:45;101672.81;;;5.65;100.00
84308;BME280;74486;52.070;5.128;2023-12-20T00:15:11;101669.84;;;5.60;100.00
84308;BME280;74486;52.070;5.128;2023-12-20T00:17:36;101671.25;;;5.57;100.00
84308;BME280;74486;52.070;5.128;2023-12-20T00:20:02;101663.78;;;5.50;100.00
84308;BME280;74486;52.070;5.128;2023-12-20T00:22:27;101662.47;;;5.55;100.00
84308;BME280;74486;52.070;5.128;2023-12-20T00:24:54;101660.38;;;5.61;100.00
84308;BME280;74486;52.070;5.128;2023-12-20T00:27:19;101658.69;;;5.61;100.00
84308;BME280;74486;52.070;5.128;2023-12-20T00:29:45;101661.81;;;5.57;100.00
84308;BME280;74486;52.070;5.128;2023-12-20T00:32:10;101659.47;;;5.60;100.00
84308;BME280;74486;52.070;5.128;2023-12-20T00:34:36;101662.78;;;5.69;100.00
84308;BME280;74486;52.070;5.128;2023-12-20T00:37:01;101659.06;;;5.66;100.00
84308;BME280;74486;52.070;5.128;2023-12-20T00:39:27;101653.88;;;5.66;100.00
84308;BME280;74486;52.070;5.128;2023-12-20T00:41:54;101655.38;;;5.74;100.00
84308;BME280;74486;52.070;5.128;2023-12-20T00:44:19;101666.13;;;5.79;100.00
84308;BME280;74486;52.070;5.128;2023-12-20T00:46:45;101659.38;;;5.81;100.00
84308;BME280;74486;52.070;5.128;2023-12-20T00:49:10;101659.09;;;5.88;100.00
84308;BME280;74486;52.070;5.128;2023-12-20T00:51:35;101661.03;;;5.90;100.00
84308;BME280;74486;52.070;5.128;2023-12-20T00:54:01;101658.69;;;5.83;100.00
84308;BME280;74486;52.070;5.128;2023-12-20T00:56:26;101658.81;;;5.85;100.00
84308;BME280;74486;52.070;5.128;2023-12-20T00:58:53;101657.66;;;5.81;100.00
84308;BME280;74486;52.070;5.128;2023-12-20T01:01:18;101649.50;;;5.77;100.00
84308;BME280;74486;52.070;5.128;2023-12-20T01:03:44;101649.06;;;5.71;100.00
84308;BME280;74486;52.070;5.128;2023-12-20T01:06:09;101653.88;;;5.66;100.00
84308;BME280;74486;52.070;5.128;2023-12-20T01:08:35;101653.19;;;5.68;100.00
84308;BME280;74486;52.070;5.128;2023-12-20T01:11:00;101650.97;;;5.73;100.00
84308;BME280;74486;52.070;5.128;2023-12-20T01:13:25;101649.81;;;5.69;100.00
84308;BME280;74486;52.070;5.128;2023-12-20T01:15:52;101657.53;;;5.90;100.00
84308;BME280;74486;52.070;5.128;2023-12-20T01:18:18;101651.22;;;5.98;100.00
84308;BME280;74486;52.070;5.128;2023-12-20T01:20:43;101658.53;;;5.92;100.00
84308;BME280;74486;52.070;5.128;2023-12-20T01:23:08;101656.56;;;5.99;100.00
84308;BME280;74486;52.070;5.128;2023-12-20T01:25:34;101672.34;;;6.02;100.00
84308;BME280;74486;52.070;5.128;2023-12-20T01:27:59;101677.38;;;5.89;100.00
84308;BME280;74486;52.070;5.128;2023-12-20T01:30:25;101672.44;;;5.82;100.00
84308;BME280;74486;52.070;5.128;2023-12-20T01:32:51;101677.63;;;5.82;100.00
84308;BME280;74486;52.070;5.128;2023-12-20T01:35:17;101676.91;;;5.73;100.00
84308;BME280;74486;52.070;5.128;2023-12-20T01:37:42;101670.25;;;5.87;100.00
84308;BME280;74486;52.070;5.128;2023-12-20T01:40:09;101662.47;;;5.87;100.00
84308;BME280;74486;52.070;5.128;2023-12-20T01:42:34;101660.13;;;5.90;100.00
84308;BME280;74486;52.070;5.128;2023-12-20T01:45:00;101642.53;;;5.97;100.00
84308;BME280;74486;52.070;5.128;2023-12-20T01:47:25;101641.09;;;6.01;100.00
84308;BME280;74486;52.070;5.128;2023-12-20T01:49:52;101639.72;;;5.94;100.00
84308;BME280;74486;52.070;5.128;2023-12-20T01:52:19;101648.41;;;5.95;100.00
84308;BME280;74486;52.070;5.128;2023-12-20T01:54:45;101653.59;;;5.95;100.00
84308;BME280;74486;52.070;5.128;2023-12-20T01:57:10;101653.59;;;5.95;100.00
84308;BME280;74486;52.070;5.128;2023-12-20T01:59:37;101645.56;;;5.92;100.00
84308;BME280;74486;52.070;5.128;2023-12-20T02:02:04;101655.38;;;5.96;100.00
84308;BME280;74486;52.070;5.128;2023-12-20T02:04:30;101644.13;;;5.95;100.00
84308;BME280;74486;52.070;5.128;2023-12-20T02:06:57;101650.63;;;6.12;100.00
84308;BME280;74486;52.070;5.128;2023-12-20T02:09:24;101647.94;;;6.22;100.00
84308;BME280;74486;52.070;5.128;2023-12-20T02:11:49;101641.97;;;6.23;100.00
84308;BME280;74486;52.070;5.128;2023-12-20T02:14:15;101641.91;;;6.33;100.00
84308;BME280;74486;52.070;5.128;2023-12-20T02:16:41;101638.88;;;6.39;100.00
84308;BME280;74486;52.070;5.128;2023-12-20T02:19:10;101649.13;;;6.37;100.00
84308;BME280;74486;52.070;5.128;2023-12-20T02:21:39;101650.47;;;6.32;100.00
84308;BME280;74486;52.070;5.128;2023-12-20T02:24:05;101647.88;;;6.32;100.00
84308;BME280;74486;52.070;5.128;2023-12-20T02:26:31;101648.09;;;6.35;100.00
84308;BME280;74486;52.070;5.128;2023-12-20T02:28:58;101648.44;;;6.28;100.00
84308;BME280;74486;52.070;5.128;2023-12-20T02:31:23;101635.88;;;6.23;100.00
84308;BME280;74486;52.070;5.128;2023-12-20T02:33:49;101631.03;;;6.27;100.00
84308;BME280;74486;52.070;5.128;2023-12-20T02:36:14;101629.69;;;6.32;100.00
84308;BME280;74486;52.070;5.128;2023-12-20T02:38:41;101629.69;;;6.32;100.00
84308;BME280;74486;52.070;5.128;2023-12-20T02:41:07;101634.41;;;6.26;100.00
84308;BME280;74486;52.070;5.128;2023-12-20T02:43:32;101623.94;;;6.36;100.00
84308;BME280;74486;52.070;5.128;2023-12-20T02:45:58;101633.69;;;6.50;100.00
84308;BME280;74486;52.070;5.128;2023-12-20T02:48:23;101623.19;;;6.61;100.00
84308;BME280;74486;52.070;5.128;2023-12-20T02:50:48;101617.88;;;6.59;100.00
84308;BME280;74486;52.070;5.128;2023-12-20T02:53:14;101620.94;;;6.65;100.00
84308;BME280;74486;52.070;5.128;2023-12-20T02:55:41;101623.41;;;6.64;100.00
84308;BME280;74486;52.070;5.128;2023-12-20T02:58:07;101619.03;;;6.74;99.28
84308;BME280;74486;52.070;5.128;2023-12-20T03:00:32;101615.97;;;6.80;99.23
84308;BME280;74486;52.070;5.128;2023-12-20T03:02:58;101613.03;;;6.75;100.00
84308;BME280;74486;52.070;5.128;2023-12-20T03:05:23;101615.84;;;6.78;99.53
84308;BME280;74486;52.070;5.128;2023-12-20T03:07:49;101610.22;;;6.84;99.21
84308;BME280;74486;52.070;5.128;2023-12-20T03:10:14;101599.59;;;6.92;98.51
84308;BME280;74486;52.070;5.128;2023-12-20T03:12:41;101602.66;;;6.87;99.62
84308;BME280;74486;52.070;5.128;2023-12-20T03:15:07;101590.66;;;6.89;99.42
84308;BME280;74486;52.070;5.128;2023-12-20T03:17:33;101592.03;;;6.84;99.27
84308;BME280;74486;52.070;5.128;2023-12-20T03:19:58;101597.13;;;6.82;98.88
84308;BME280;74486;52.070;5.128;2023-12-20T03:22:24;101598.16;;;6.73;98.57
84308;BME280;74486;52.070;5.128;2023-12-20T03:24:49;101594.72;;;6.74;99.34
84308;BME280;74486;52.070;5.128;2023-12-20T03:27:15;101598.13;;;6.84;98.07
84308;BME280;74486;52.070;5.128;2023-12-20T03:29:42;101602.31;;;6.94;96.67
84308;BME280;74486;52.070;5.128;2023-12-20T03:32:07;101603.09;;;6.93;96.80
84308;BME280;74486;52.070;5.128;2023-12-20T03:34:32;101603.09;;;6.93;96.21
84308;BME280;74486;52.070;5.128;2023-12-20T03:36:58;101596.00;;;6.90;96.99
84308;BME280;74486;52.070;5.128;2023-12-20T03:39:23;101601.63;;;6.85;97.63
84308;BME280;74486;52.070;5.128;2023-12-20T03:41:49;101595.66;;;6.86;97.50
84308;BME280;74486;52.070;5.128;2023-12-20T03:44:14;101594.63;;;6.84;96.87
84308;BME280;74486;52.070;5.128;2023-12-20T03:46:41;101609.56;;;6.86;96.91
84308;BME280;74486;52.070;5.128;2023-12-20T03:49:06;101599.16;;;6.86;97.13
84308;BME280;74486;52.070;5.128;2023-12-20T03:51:32;101603.78;;;6.79;97.59
84308;BME280;74486;52.070;5.128;2023-12-20T03:53:57;101586.59;;;6.69;98.24
84308;BME280;74486;52.070;5.128;2023-12-20T03:56:23;101591.00;;;6.70;97.53
84308;BME280;74486;52.070;5.128;2023-12-20T03:58:48;101597.25;;;6.72;97.37
84308;BME280;74486;52.070;5.128;2023-12-20T04:01:13;101584.03;;;6.81;95.85
84308;BME280;74486;52.070;5.128;2023-12-20T04:03:40;101603.19;;;6.83;96.53
84308;BME280;74486;52.070;5.128;2023-12-20T04:06:06;101608.06;;;6.90;95.20
84308;BME280;74486;52.070;5.128;2023-12-20T04:08:31;101598.81;;;6.82;96.34
84308;BME280;74486;52.070;5.128;2023-12-20T04:10:57;101599.72;;;6.94;95.03
84308;BME280;74486;52.070;5.128;2023-12-20T04:13:22;101595.53;;;6.96;94.56
84308;BME280;74486;52.070;5.128;2023-12-20T04:15:48;101588.66;;;6.96;94.94
84308;BME280;74486;52.070;5.128;2023-12-20T04:18:13;101594.75;;;6.97;94.67
84308;BME280;74486;52.070;5.128;2023-12-20T04:20:40;101599.13;;;6.98;94.90
84308;BME280;74486;52.070;5.128;2023-12-20T04:23:05;101599.97;;;6.97;95.05
84308;BME280;74486;52.070;5.128;2023-12-20T04:25:31;101588.66;;;6.96;94.97
84308;BME280;74486;52.070;5.128;2023-12-20T04:27:56;101586.16;;;6.98;95.05
84308;BME280;74486;52.070;5.128;2023-12-20T04:30:22;101590.69;;;7.01;94.87
84308;BME280;74486;52.070;5.128;2023-12-20T04:32:47;101584.44;;;7.10;93.61
84308;BME280;74486;52.070;5.128;2023-12-20T04:35:12;101579.25;;;7.10;93.97
84308;BME280;74486;52.070;5.128;2023-12-20T04:37:40;101591.56;;;7.13;93.75
84308;BME280;74486;52.070;5.128;2023-12-20T04:40:06;101592.78;;;7.18;93.96
84308;BME280;74486;52.070;5.128;2023-12-20T04:42:32;101583.75;;;7.13;93.89
84308;BME280;74486;52.070;5.128;2023-12-20T04:44:57;101592.34;;;7.12;94.34
84308;BME280;74486;52.070;5.128;2023-12-20T04:47:23;101566.34;;;7.12;94.09
84308;BME280;74486;52.070;5.128;2023-12-20T04:49:48;101575.75;;;7.10;94.47
84308;BME280;74486;52.070;5.128;2023-12-20T04:52:14;101577.44;;;7.09;94.64
84308;BME280;74486;52.070;5.128;2023-12-20T04:54:40;101569.66;;;7.09;94.23
84308;BME280;74486;52.070;5.128;2023-12-20T04:57:06;101572.03;;;7.06;95.01
84308;BME280;74486;52.070;5.128;2023-12-20T04:59:31;101571.69;;;7.02;95.71
84308;BME280;74486;52.070;5.128;2023-12-20T05:01:57;101568.06;;;6.99;95.98
84308;BME280;74486;52.070;5.128;2023-12-20T05:04:22;101576.91;;;7.02;95.76
84308;BME280;74486;52.070;5.128;2023-12-20T05:06:48;101581.28;;;7.03;95.55
84308;BME280;74486;52.070;5.128;2023-12-20T05:09:13;101577.22;;;7.06;95.25
84308;BME280;74486;52.070;5.128;2023-12-20T05:11:40;101579.91;;;7.08;95.24
84308;BME280;74486;52.070;5.128;2023-12-20T05:14:05;101583.78;;;7.01;95.49
84308;BME280;74486;52.070;5.128;2023-12-20T05:16:31;101568.53;;;7.06;95.80
84308;BME280;74486;52.070;5.128;2023-12-20T05:18:56;101575.63;;;7.08;94.48
84308;BME280;74486;52.070;5.128;2023-12-20T05:21:21;101581.72;;;7.09;94.13
84308;BME280;74486;52.070;5.128;2023-12-20T05:23:47;101582.63;;;7.09;94.14
84308;BME280;74486;52.070;5.128;2023-12-20T05:26:12;101588.88;;;7.11;93.49
84308;BME280;74486;52.070;5.128;2023-12-20T05:28:39;101586.03;;;7.08;94.69
84308;BME280;74486;52.070;5.128;2023-12-20T05:31:05;101577.22;;;7.06;95.28
84308;BME280;74486;52.070;5.128;2023-12-20T05:33:30;101577.78;;;7.02;94.95
84308;BME280;74486;52.070;5.128;2023-12-20T05:35:55;101576.06;;;7.03;94.54
84308;BME280;74486;52.070;5.128;2023-12-20T05:38:21;101579.50;;;7.02;95.11
84308;BME280;74486;52.070;5.128;2023-12-20T05:40:47;101578.91;;;7.06;95.31
84308;BME280;74486;52.070;5.128;2023-12-20T05:43:12;101567.16;;;7.11;93.69
84308;BME280;74486;52.070;5.128;2023-12-20T05:45:39;101582.44;;;7.06;94.35
84308;BME280;74486;52.070;5.128;2023-12-20T05:48:05;101578.69;;;7.14;93.69
84308;BME280;74486;52.070;5.128;2023-12-20T05:50:31;101577.09;;;7.16;93.65
84308;BME280;74486;52.070;5.128;2023-12-20T05:52:56;101576.97;;;7.15;93.67
84308;BME280;74486;52.070;5.128;2023-12-20T05:55:25;101574.38;;;7.15;94.41
84308;BME280;74486;52.070;5.128;2023-12-20T05:57:50;101570.09;;;7.04;95.26
84308;BME280;74486;52.070;5.128;2023-12-20T06:00:17;101584.66;;;7.13;93.85
84308;BME280;74486;52.070;5.128;2023-12-20T06:02:44;101576.41;;;7.19;94.02
84308;BME280;74486;52.070;5.128;2023-12-20T06:05:09;101576.97;;;7.15;94.88
84308;BME280;74486;52.070;5.128;2023-12-20T06:07:35;101583.28;;;7.18;94.09
84308;BME280;74486;52.070;5.128;2023-12-20T06:10:01;101575.63;;;7.20;94.16
84308;BME280;74486;52.070;5.128;2023-12-20T06:12:27;101581.81;;;7.22;94.17
84308;BME280;74486;52.070;5.128;2023-12-20T06:14:52;101576.47;;;7.32;93.05
84308;BME280;74486;52.070;5.128;2023-12-20T06:17:18;101576.16;;;7.27;93.51
84308;BME280;74486;52.070;5.128;2023-12-20T06:19:45;101584.19;;;7.30;92.99
84308;BME280;74486;52.070;5.128;2023-12-20T06:22:10;101576.47;;;7.32;93.06
84308;BME280;74486;52.070;5.128;2023-12-20T06:24:35;101574.47;;;7.28;93.74
84308;BME280;74486;52.070;5.128;2023-12-20T06:27:01;101574.69;;;7.31;93.53
84308;BME280;74486;52.070;5.128;2023-12-20T06:29:26;101570.88;;;7.26;94.54
84308;BME280;74486;52.070;5.128;2023-12-20T06:31:53;101575.50;;;7.30;93.74
84308;BME280;74486;52.070;5.128;2023-12-20T06:34:20;101577.31;;;7.31;93.62
84308;BME280;74486;52.070;5.128;2023-12-20T06:36:46;101573.88;;;7.32;93.90
84308;BME280;74486;52.070;5.128;2023-12-20T06:39:12;101570.81;;;7.37;92.90
84308;BME280;74486;52.070;5.128;2023-12-20T06:41:38;101568.69;;;7.32;93.82
84308;BME280;74486;52.070;5.128;2023-12-20T06:44:03;101566.00;;;7.30;93.82
84308;BME280;74486;52.070;5.128;2023-12-20T06:46:29;101566.19;;;7.33;93.25
84308;BME280;74486;52.070;5.128;2023-12-20T06:48:54;101560.88;;;7.32;94.31
84308;BME280;74486;52.070;5.128;2023-12-20T06:51:19;101559.75;;;7.40;93.41
84308;BME280;74486;52.070;5.128;2023-12-20T06:53:46;101558.72;;;7.38;94.11
84308;BME280;74486;52.070;5.128;2023-12-20T06:56:12;101561.78;;;7.44;92.97
84308;BME280;74486;52.070;5.128;2023-12-20T06:58:37;101561.84;;;7.46;93.41
84308;BME280;74486;52.070;5.128;2023-12-20T07:01:03;101558.94;;;7.41;93.71
84308;BME280;74486;52.070;5.128;2023-12-20T07:03:28;101551.44;;;7.46;93.21
84308;BME280;74486;52.070;5.128;2023-12-20T07:05:54;101557.00;;;7.50;93.38
84308;BME280;74486;52.070;5.128;2023-12-20T07:08:19;101555.06;;;7.48;93.01
84308;BME280;74486;52.070;5.128;2023-12-20T07:10:46;101549.66;;;7.45;93.41
84308;BME280;74486;52.070;5.128;2023-12-20T07:13:11;101545.38;;;7.45;93.67
84308;BME280;74486;52.070;5.128;2023-12-20T07:15:37;101548.06;;;7.47;93.23
84308;BME280;74486;52.070;5.128;2023-12-20T07:18:03;101540.06;;;7.43;93.45
84308;BME280;74486;52.070;5.128;2023-12-20T07:20:28;101538.78;;;7.50;93.40
84308;BME280;74486;52.070;5.128;2023-12-20T07:22:55;101540.81;;;7.54;92.74
84308;BME280;74486;52.070;5.128;2023-12-20T07:25:20;101532.19;;;7.55;92.71
84308;BME280;74486;52.070;5.128;2023-12-20T07:27:47;101531.78;;;7.49;93.82
84308;BME280;74486;52.070;5.128;2023-12-20T07:30:13;101521.56;;;7.52;93.07
84308;BME280;74486;52.070;5.128;2023-12-20T07:32:39;101520.16;;;7.44;93.45
84308;BME280;74486;52.070;5.128;2023-12-20T07:35:05;101523.41;;;7.53;93.32
84308;BME280;74486;52.070;5.128;2023-12-20T07:37:30;101521.69;;;7.54;93.98
84308;BME280;74486;52.070;5.128;2023-12-20T07:39:56;101517.41;;;7.54;93.17
84308;BME280;74486;52.070;5.128;2023-12-20T07:42:21;101529.94;;;7.60;93.59
84308;BME280;74486;52.070;5.128;2023-12-20T07:44:48;101530.59;;;7.57;93.44
84308;BME280;74486;52.070;5.128;2023-12-20T07:47:13;101536.50;;;7.55;93.78
84308;BME280;74486;52.070;5.128;2023-12-20T07:49:39;101542.34;;;7.64;92.83
84308;BME280;74486;52.070;5.128;2023-12-20T07:52:05;101552.53;;;7.61;93.77
84308;BME280;74486;52.070;5.128;2023-12-20T07:54:31;101548.50;;;7.53;94.47
84308;BME280;74486;52.070;5.128;2023-12-20T07:56:58;101552.78;;;7.52;94.60
84308;BME280;74486;52.070;5.128;2023-12-20T07:59:25;101549.03;;;7.60;93.87
84308;BME280;74486;52.070;5.128;2023-12-20T08:01:52;101553.56;;;7.63;92.98
84308;BME280;74486;52.070;5.128;2023-12-20T08:04:18;101558.63;;;7.61;93.38
84308;BME280;74486;52.070;5.128;2023-12-20T08:06:43;101561.56;;;7.66;93.63
84308;BME280;74486;52.070;5.128;2023-12-20T08:09:11;101564.28;;;7.67;93.37
84308;BME280;74486;52.070;5.128;2023-12-20T08:11:36;101569.75;;;7.59;94.70
84308;BME280;74486;52.070;5.128;2023-12-20T08:14:02;101563.97;;;7.63;93.78
84308;BME280;74486;52.070;5.128;2023-12-20T08:16:27;101570.19;;;7.65;94.04
84308;BME280;74486;52.070;5.128;2023-12-20T08:18:54;101565.84;;;7.65;93.56
84308;BME280;74486;52.070;5.128;2023-12-20T08:21:19;101578.19;;;7.68;93.64
84308;BME280;74486;52.070;5.128;2023-12-20T08:23:46;101573.66;;;7.65;93.27
84308;BME280;74486;52.070;5.128;2023-12-20T08:26:11;101564.28;;;7.67;93.67
84308;BME280;74486;52.070;5.128;2023-12-20T08:28:37;101554.72;;;7.55;94.77
84308;BME280;74486;52.070;5.128;2023-12-20T08:31:02;101557.19;;;7.65;94.30
84308;BME280;74486;52.070;5.128;2023-12-20T08:33:28;101548.56;;;7.66;94.03
84308;BME280;74486;52.070;5.128;2023-12-20T08:35:55;101551.41;;;7.57;95.57
84308;BME280;74486;52.070;5.128;2023-12-20T08:38:20;101543.63;;;7.57;94.98
84308;BME280;74486;52.070;5.128;2023-12-20T08:40:46;101536.72;;;7.58;95.28
84308;BME280;74486;52.070;5.128;2023-12-20T08:43:11;101541.56;;;7.65;94.89
84308;BME280;74486;52.070;5.128;2023-12-20T08:45:37;101544.84;;;7.62;94.67
84308;BME280;74486;52.070;5.128;2023-12-20T08:48:03;101548.66;;;7.67;94.54
84308;BME280;74486;52.070;5.128;2023-12-20T08:50:29;101552.28;;;7.69;94.19
84308;BME280;74486;52.070;5.128;2023-12-20T08:52:56;101552.69;;;7.75;94.21
84308;BME280;74486;52.070;5.128;2023-12-20T08:55:21;101554.31;;;7.73;93.91
84308;BME280;74486;52.070;5.128;2023-12-20T08:57:47;101547.81;;;7.80;94.19
84308;BME280;74486;52.070;5.128;2023-12-20T09:00:13;101545.63;;;7.86;93.94
84308;BME280;74486;52.070;5.128;2023-12-20T09:02:39;101543.34;;;7.91;93.75
84308;BME280;74486;52.070;5.128;2023-12-20T09:05:05;101547.56;;;7.89;94.59
84308;BME280;74486;52.070;5.128;2023-12-20T09:07:30;101545.75;;;7.88;94.18
84308;BME280;74486;52.070;5.128;2023-12-20T09:09:57;101551.69;;;7.98;93.99
84308;BME280;74486;52.070;5.128;2023-12-20T09:12:23;101537.97;;;8.01;93.40
84308;BME280;74486;52.070;5.128;2023-12-20T09:14:50;101535.78;;;8.07;92.82
84308;BME280;74486;52.070;5.128;2023-12-20T09:17:16;101544.41;;;8.06;93.21
84308;BME280;74486;52.070;5.128;2023-12-20T09:19:42;101530.91;;;8.11;92.43
84308;BME280;74486;52.070;5.128;2023-12-20T09:22:08;101533.81;;;8.16;91.56
84308;BME280;74486;52.070;5.128;2023-12-20T09:24:33;101533.38;;;8.10;93.35
84308;BME280;74486;52.070;5.128;2023-12-20T09:27:06;101547.25;;;8.22;92.24
84308;BME280;74486;52.070;5.128;2023-12-20T09:29:31;101538.63;;;8.23;91.79
84308;BME280;74486;52.070;5.128;2023-12-20T09:31:57;101538.13;;;8.28;91.56
84308;BME280;74486;52.070;5.128;2023-12-20T09:34:23;101540.88;;;8.30;91.25
84308;BME280;74486;52.070;5.128;2023-12-20T09:36:49;101532.28;;;8.31;90.43
84308;BME280;74486;52.070;5.128;2023-12-20T09:39:15;101541.78;;;8.31;90.86
84308;BME280;74486;52.070;5.128;2023-12-20T09:41:44;101543.00;;;8.36;90.56
84308;BME280;74486;52.070;5.128;2023-12-20T09:44:14;101545.72;;;8.37;90.31
84308;BME280;74486;52.070;5.128;2023-12-20T09:46:43;101548.22;;;8.36;90.88
84308;BME280;74486;52.070;5.128;2023-12-20T09:49:09;101548.31;;;8.37;91.22
84308;BME280;74486;52.070;5.128;2023-12-20T09:51:36;101540.41;;;8.36;90.97
84308;BME280;74486;52.070;5.128;2023-12-20T09:54:04;101541.72;;;8.42;89.77
84308;BME280;74486;52.070;5.128;2023-12-20T09:56:30;101542.91;;;8.47;89.67
84308;BME280;74486;52.070;5.128;2023-12-20T09:58:56;101548.09;;;8.47;89.31
84308;BME280;74486;52.070;5.128;2023-12-20T10:01:24;101548.22;;;8.49;89.82
84308;BME280;74486;52.070;5.128;2023-12-20T10:03:51;101559.44;;;8.48;89.95
84308;BME280;74486;52.070;5.128;2023-12-20T10:06:19;101568.63;;;8.43;90.31
84308;BME280;74486;52.070;5.128;2023-12-20T10:08:45;101559.94;;;8.42;90.84
84308;BME280;74486;52.070;5.128;2023-12-20T10:11:10;101563.16;;;8.51;90.56
84308;BME280;74486;52.070;5.128;2023-12-20T10:13:39;101579.00;;;8.54;90.14
84308;BME280;74486;52.070;5.128;2023-12-20T10:16:05;101561.66;;;8.55;90.50
84308;BME280;74486;52.070;5.128;2023-12-20T10:18:33;101573.19;;;8.58;89.53
84308;BME280;74486;52.070;5.128;2023-12-20T10:20:58;101569.28;;;8.65;89.94
84308;BME280;74486;52.070;5.128;2023-12-20T10:23:25;101567.16;;;8.59;90.19
84308;BME280;74486;52.070;5.128;2023-12-20T10:25:56;101554.63;;;8.67;89.89
84308;BME280;74486;52.070;5.128;2023-12-20T10:28:21;101558.06;;;8.66;90.06
84308;BME280;74486;52.070;5.128;2023-12-20T10:30:48;101564.56;;;8.72;88.72
84308;BME280;74486;52.070;5.128;2023-12-20T10:33:24;101559.34;;;8.72;89.81
84308;BME280;74486;52.070;5.128;2023-12-20T10:35:55;101552.31;;;8.71;90.29
84308;BME280;74486;52.070;5.128;2023-12-20T10:38:21;101548.25;;;8.75;89.30
84308;BME280;74486;52.070;5.128;2023-12-20T10:40:47;101553.53;;;8.77;88.89
84308;BME280;74486;52.070;5.128;2023-12-20T10:43:14;101559.75;;;8.79;87.26
84308;BME280;74486;52.070;5.128;2023-12-20T10:45:41;101549.44;;;8.80;88.16
84308;BME280;74486;52.070;5.128;2023-12-20T10:48:07;101552.06;;;8.80;86.91
84308;BME280;74486;52.070;5.128;2023-12-20T10:50:36;101537.91;;;8.77;86.46
84308;BME280;74486;52.070;5.128;2023-12-20T10:53:04;101554.44;;;8.77;86.81
84308;BME280;74486;52.070;5.128;2023-12-20T10:55:30;101540.13;;;8.84;86.27
84308;BME280;74486;52.070;5.128;2023-12-20T10:58:00;101544.31;;;8.95;85.75
84308;BME280;74486;52.070;5.128;2023-12-20T11:00:26;101538.59;;;9.00;86.76
84308;BME280;74486;52.070;5.128;2023-12-20T11:02:55;101551.81;;;9.16;86.40
84308;BME280;74486;52.070;5.128;2023-12-20T11:05:27;101525.72;;;9.16;85.68
84308;BME280;74486;52.070;5.128;2023-12-20T11:07:58;101518.91;;;9.19;85.39
84308;BME280;74486;52.070;5.128;2023-12-20T11:10:31;101509.56;;;9.22;85.89
84308;BME280;74486;52.070;5.128;2023-12-20T11:13:12;101514.59;;;9.19;85.08
84308;BME280;74486;52.070;5.128;2023-12-20T11:15:42;101510.19;;;9.18;85.06
84308;BME280;74486;52.070;5.128;2023-12-20T11:18:08;101511.25;;;9.22;84.77
84308;BME280;74486;52.070;5.128;2023-12-20T11:20:38;101506.34;;;9.26;84.77
84308;BME280;74486;52.070;5.128;2023-12-20T11:23:05;101504.53;;;9.25;84.54
84308;BME280;74486;52.070;5.128;2023-12-20T11:25:46;101515.41;;;9.18;85.00
84308;BME280;74486;52.070;5.128;2023-12-20T11:28:12;101503.94;;;9.16;85.50
84308;BME280;74486;52.070;5.128;2023-12-20T11:30:42;101493.34;;;9.13;85.28
84308;BME280;74486;52.070;5.128;2023-12-20T11:33:09;101509.84;;;9.27;85.71
84308;BME280;74486;52.070;5.128;2023-12-20T11:35:35;101513.47;;;9.29;84.51
84308;BME280;74486;52.070;5.128;2023-12-20T11:38:00;101508.94;;;9.26;85.67
84308;BME280;74486;52.070;5.128;2023-12-20T11:40:26;101497.59;;;9.26;85.34
84308;BME280;74486;52.070;5.128;2023-12-20T11:42:52;101503.94;;;9.29;85.08
84308;BME280;74486;52.070;5.128;2023-12-20T11:45:19;101484.44;;;9.37;84.97
84308;BME280;74486;52.070;5.128;2023-12-20T11:47:46;101489.16;;;9.30;85.03
84308;BME280;74486;52.070;5.128;2023-12-20T11:50:12;101481.25;;;9.28;85.33
84308;BME280;74486;52.070;5.128;2023-12-20T11:52:39;101472.91;;;9.34;83.91
84308;BME280;74486;52.070;5.128;2023-12-20T11:55:05;101463.03;;;9.43;84.94
84308;BME280;74486;52.070;5.128;2023-12-20T11:57:33;101488.56;;;9.34;84.75
84308;BME280;74486;52.070;5.128;2023-12-20T12:00:00;101486.03;;;9.35;84.79
84308;BME280;74486;52.070;5.128;2023-12-20T12:02:25;101471.44;;;9.24;85.66
84308;BME280;74486;52.070;5.128;2023-12-20T12:04:51;101475.81;;;9.25;86.11
84308;BME280;74486;52.070;5.128;2023-12-20T12:07:16;101467.94;;;9.24;85.28
84308;BME280;74486;52.070;5.128;2023-12-20T12:09:42;101471.44;;;9.24;85.88
84308;BME280;74486;52.070;5.128;2023-12-20T12:12:08;101475.03;;;9.26;86.39
84308;BME280;74486;52.070;5.128;2023-12-20T12:14:34;101482.69;;;9.23;86.14
84308;BME280;74486;52.070;5.128;2023-12-20T12:17:01;101476.94;;;9.29;86.26
84308;BME280;74486;52.070;5.128;2023-12-20T12:19:26;101478.03;;;9.32;85.33
84308;BME280;74486;52.070;5.128;2023-12-20T12:22:04;101488.34;;;9.31;86.06
84308;BME280;74486;52.070;5.128;2023-12-20T12:24:31;101481.16;;;9.27;86.47
84308;BME280;74486;52.070;5.128;2023-12-20T12:26:57;101475.03;;;9.26;87.24
84308;BME280;74486;52.070;5.128;2023-12-20T12:29:24;101459.94;;;9.35;86.46
84308;BME280;74486;52.070;5.128;2023-12-20T12:31:50;101455.00;;;9.40;86.01
84308;BME280;74486;52.070;5.128;2023-12-20T12:34:17;101451.31;;;9.36;85.56
84308;BME280;74486;52.070;5.128;2023-12-20T12:36:43;101453.41;;;9.42;85.28
84308;BME280;74486;52.070;5.128;2023-12-20T12:39:12;101445.69;;;9.43;85.95
84308;BME280;74486;52.070;5.128;2023-12-20T12:41:37;101441.97;;;9.40;85.71
84308;BME280;74486;52.070;5.128;2023-12-20T12:44:05;101447.19;;;9.40;85.48
84308;BME280;74486;52.070;5.128;2023-12-20T12:46:30;101435.75;;;9.38;85.08
84308;BME280;74486;52.070;5.128;2023-12-20T12:48:56;101443.75;;;9.41;85.79
84308;BME280;74486;52.070;5.128;2023-12-20T12:51:23;101440.69;;;9.33;87.05